sensor_id;sensor_type;location;lat;lon;timestamp;temperature;humidity
28839;DHT22;15971;50.772;6.100;2022-09-09T00:03:57;16.30;99.90
28839;DHT22;15971;50.772;6.100;2022-09-09T00:06:30;16.30;99.90
28839;DHT22;15971;50.772;6.100;2022-09-09T00:09:04;16.10;99.90
28839;DHT22;15971;50.772;6.100;2022-09-09T00:11:37;16.20;99.90
28839;DHT22;15971;50.772;6.100;2022-09-09T00:14:56;16.30;99.90
28839;DHT22;15971;50.772;6.100;2022-09-09T00:17:04;16.40;99.90
28839;DHT22;15971;50.772;6.100;2022-09-09T00:19:50;16.30;99.90
28839;DHT22;15971;50.772;6.100;2022-09-09T00:22:21;16.20;99.90
28839;DHT22;15971;50.772;6.100;2022-09-09T00:24:55;15.90;99.90
28839;DHT22;15971;50.772;6.100;2022-09-09T00:27:33;16.00;99.90
28839;DHT22;15971;50.772;6.100;2022-09-09T00:30:16;16.00;99.90
28839;DHT22;15971;50.772;6.100;2022-09-09T00:32:46;16.00;99.90
28839;DHT22;15971;50.772;6.100;2022-09-09T00:35:24;16.10;99.90
28839;DHT22;15971;50.772;6.100;2022-09-09T00:37:53;16.10;99.90
28839;DHT22;15971;50.772;6.100;2022-09-09T00:42:54;16.20;99.90
28839;DHT22;15971;50.772;6.100;2022-09-09T00:48:11;16.10;99.90
28839;DHT22;15971;50.772;6.100;2022-09-09T00:50:52;16.10;99.90
28839;DHT22;15971;50.772;6.100;2022-09-09T00:56:13;16.10;99.90
28839;DHT22;15971;50.772;6.100;2022-09-09T00:58:43;16.00;99.90
28839;DHT22;15971;50.772;6.100;2022-09-09T01:01:16;16.00;99.90
28839;DHT22;15971;50.772;6.100;2022-09-09T01:03:53;16.00;99.90
28839;DHT22;15971;50.772;6.100;2022-09-09T01:09:27;16.30;99.90
28839;DHT22;15971;50.772;6.100;2022-09-09T01:12:03;16.20;99.90
28839;DHT22;15971;50.772;6.100;2022-09-09T01:25:22;16.30;99.90
28839;DHT22;15971;50.772;6.100;2022-09-09T01:28:04;16.20;99.90
28839;DHT22;15971;50.772;6.100;2022-09-09T01:30:30;16.20;99.90
28839;DHT22;15971;50.772;6.100;2022-09-09T01:32:58;16.10;99.90
28839;DHT22;15971;50.772;6.100;2022-09-09T01:35:40;16.30;99.90
28839;DHT22;15971;50.772;6.100;2022-09-09T01:38:08;16.30;99.90
28839;DHT22;15971;50.772;6.100;2022-09-09T01:40:34;16.50;99.90
28839;DHT22;15971;50.772;6.100;2022-09-09T01:43:00;16.50;99.90
28839;DHT22;15971;50.772;6.100;2022-09-09T01:45:26;16.70;99.90
28839;DHT22;15971;50.772;6.100;2022-09-09T01:47:52;16.60;99.90
28839;DHT22;15971;50.772;6.100;2022-09-09T01:50:19;16.70;99.90
28839;DHT22;15971;50.772;6.100;2022-09-09T01:52:48;16.80;99.90
28839;DHT22;15971;50.772;6.100;2022-09-09T01:55:15;16.90;99.90
28839;DHT22;15971;50.772;6.100;2022-09-09T02:00:23;16.90;99.90
28839;DHT22;15971;50.772;6.100;2022-09-09T02:03:05;16.90;99.90
28839;DHT22;15971;50.772;6.100;2022-09-09T02:05:57;16.90;99.90
28839;DHT22;15971;50.772;6.100;2022-09-09T02:13:47;16.90;99.90
28839;DHT22;15971;50.772;6.100;2022-09-09T02:16:15;16.90;99.90
28839;DHT22;15971;50.772;6.100;2022-09-09T02:18:48;17.00;99.90
28839;DHT22;15971;50.772;6.100;2022-09-09T02:21:16;17.00;99.90
28839;DHT22;15971;50.772;6.100;2022-09-09T02:23:43;17.20;99.90
28839;DHT22;15971;50.772;6.100;2022-09-09T02:26:13;17.10;99.90
28839;DHT22;15971;50.772;6.100;2022-09-09T02:28:49;17.10;99.90
28839;DHT22;15971;50.772;6.100;2022-09-09T02:31:18;17.10;99.90
28839;DHT22;15971;50.772;6.100;2022-09-09T02:33:56;17.00;99.90
28839;DHT22;15971;50.772;6.100;2022-09-09T02:36:24;16.90;99.90
28839;DHT22;15971;50.772;6.100;2022-09-09T02:38:52;16.90;99.90
28839;DHT22;15971;50.772;6.100;2022-09-09T02:41:30;16.90;99.90
28839;DHT22;15971;50.772;6.100;2022-09-09T02:43:57;16.90;99.90
28839;DHT22;15971;50.772;6.100;2022-09-09T02:54:10;16.90;99.90
28839;DHT22;15971;50.772;6.100;2022-09-09T02:56:43;16.90;99.90
28839;DHT22;15971;50.772;6.100;2022-09-09T02:59:11;16.90;99.90
28839;DHT22;15971;50.772;6.100;2022-09-09T03:01:36;16.80;99.90
28839;DHT22;15971;50.772;6.100;2022-09-09T03:04:05;16.90;99.90
28839;DHT22;15971;50.772;6.100;2022-09-09T03:06:30;16.70;99.90
28839;DHT22;15971;50.772;6.100;2022-09-09T03:08:56;16.70;99.90
28839;DHT22;15971;50.772;6.100;2022-09-09T03:11:26;17.00;99.90
28839;DHT22;15971;50.772;6.100;2022-09-09T03:13:53;16.80;99.90
28839;DHT22;15971;50.772;6.100;2022-09-09T03:16:20;16.80;99.90
28839;DHT22;15971;50.772;6.100;2022-09-09T03:18:46;16.80;99.90
28839;DHT22;15971;50.772;6.100;2022-09-09T03:21:12;16.80;99.90
28839;DHT22;15971;50.772;6.100;2022-09-09T03:23:37;16.80;99.90
28839;DHT22;15971;50.772;6.100;2022-09-09T03:26:03;16.80;99.90
28839;DHT22;15971;50.772;6.100;2022-09-09T03:28:29;16.70;99.90
28839;DHT22;15971;50.772;6.100;2022-09-09T03:31:00;16.70;99.90
28839;DHT22;15971;50.772;6.100;2022-09-09T03:33:26;16.80;99.90
28839;DHT22;15971;50.772;6.100;2022-09-09T03:35:51;16.70;99.90
28839;DHT22;15971;50.772;6.100;2022-09-09T03:40:55;16.60;99.90
28839;DHT22;15971;50.772;6.100;2022-09-09T03:43:25;16.70;99.90
28839;DHT22;15971;50.772;6.100;2022-09-09T03:45:51;16.70;99.90
28839;DHT22;15971;50.772;6.100;2022-09-09T03:48:17;16.70;99.90
28839;DHT22;15971;50.772;6.100;2022-09-09T03:50:50;16.70;99.90
28839;DHT22;15971;50.772;6.100;2022-09-09T03:53:17;16.70;99.90
28839;DHT22;15971;50.772;6.100;2022-09-09T03:55:52;16.80;99.90
28839;DHT22;15971;50.772;6.100;2022-09-09T03:58:21;16.80;99.90
28839;DHT22;15971;50.772;6.100;2022-09-09T04:00:58;16.90;99.90
28839;DHT22;15971;50.772;6.100;2022-09-09T04:03:25;17.00;99.90
28839;DHT22;15971;50.772;6.100;2022-09-09T04:05:51;17.00;99.90
28839;DHT22;15971;50.772;6.100;2022-09-09T04:08:18;17.00;99.90
28839;DHT22;15971;50.772;6.100;2022-09-09T04:10:45;16.90;99.90
28839;DHT22;15971;50.772;6.100;2022-09-09T04:13:12;17.00;99.90
28839;DHT22;15971;50.772;6.100;2022-09-09T04:15:39;17.00;99.90
28839;DHT22;15971;50.772;6.100;2022-09-09T04:18:05;17.00;99.90
28839;DHT22;15971;50.772;6.100;2022-09-09T04:20:31;16.90;99.90
28839;DHT22;15971;50.772;6.100;2022-09-09T04:22:56;16.90;99.90
28839;DHT22;15971;50.772;6.100;2022-09-09T04:25:22;17.00;99.90
28839;DHT22;15971;50.772;6.100;2022-09-09T04:27:53;16.90;99.90
28839;DHT22;15971;50.772;6.100;2022-09-09T04:30:20;17.00;99.90
28839;DHT22;15971;50.772;6.100;2022-09-09T04:32:46;17.00;99.90
28839;DHT22;15971;50.772;6.100;2022-09-09T04:35:11;17.00;99.90
28839;DHT22;15971;50.772;6.100;2022-09-09T04:37:37;17.00;99.90
28839;DHT22;15971;50.772;6.100;2022-09-09T04:40:03;17.00;99.90
28839;DHT22;15971;50.772;6.100;2022-09-09T04:42:29;17.10;99.90
28839;DHT22;15971;50.772;6.100;2022-09-09T04:44:55;17.10;99.90
28839;DHT22;15971;50.772;6.100;2022-09-09T04:47:20;17.10;99.90
28839;DHT22;15971;50.772;6.100;2022-09-09T04:49:46;17.00;99.90
28839;DHT22;15971;50.772;6.100;2022-09-09T04:52:12;17.00;99.90
28839;DHT22;15971;50.772;6.100;2022-09-09T04:54:38;17.00;99.90
28839;DHT22;15971;50.772;6.100;2022-09-09T04:57:04;17.10;99.90
28839;DHT22;15971;50.772;6.100;2022-09-09T04:59:30;17.10;99.90
28839;DHT22;15971;50.772;6.100;2022-09-09T05:01:56;17.00;99.90
28839;DHT22;15971;50.772;6.100;2022-09-09T05:04:21;16.90;99.90
28839;DHT22;15971;50.772;6.100;2022-09-09T05:06:47;16.90;99.90
28839;DHT22;15971;50.772;6.100;2022-09-09T05:09:12;16.90;99.90
28839;DHT22;15971;50.772;6.100;2022-09-09T05:11:38;16.80;99.90
28839;DHT22;15971;50.772;6.100;2022-09-09T05:14:04;16.80;99.90
28839;DHT22;15971;50.772;6.100;2022-09-09T05:16:30;16.90;99.90
28839;DHT22;15971;50.772;6.100;2022-09-09T05:18:56;16.90;99.90
28839;DHT22;15971;50.772;6.100;2022-09-09T05:21:24;17.00;99.90
28839;DHT22;15971;50.772;6.100;2022-09-09T05:23:51;16.90;99.90
28839;DHT22;15971;50.772;6.100;2022-09-09T05:26:19;16.90;99.90
28839;DHT22;15971;50.772;6.100;2022-09-09T05:28:45;16.90;99.90
28839;DHT22;15971;50.772;6.100;2022-09-09T05:31:12;16.90;99.90
28839;DHT22;15971;50.772;6.100;2022-09-09T05:33:40;16.90;99.90
28839;DHT22;15971;50.772;6.100;2022-09-09T05:36:10;16.90;99.90
28839;DHT22;15971;50.772;6.100;2022-09-09T05:38:39;17.10;99.90
28839;DHT22;15971;50.772;6.100;2022-09-09T05:41:06;17.10;99.90
28839;DHT22;15971;50.772;6.100;2022-09-09T05:43:32;17.00;99.90
28839;DHT22;15971;50.772;6.100;2022-09-09T05:46:00;17.10;99.90
28839;DHT22;15971;50.772;6.100;2022-09-09T05:48:34;17.10;99.90
28839;DHT22;15971;50.772;6.100;2022-09-09T05:51:00;17.10;99.90
28839;DHT22;15971;50.772;6.100;2022-09-09T05:53:28;17.10;99.90
28839;DHT22;15971;50.772;6.100;2022-09-09T05:56:10;17.10;99.90
28839;DHT22;15971;50.772;6.100;2022-09-09T05:58:37;17.10;99.90
28839;DHT22;15971;50.772;6.100;2022-09-09T06:01:09;17.10;99.90
28839;DHT22;15971;50.772;6.100;2022-09-09T06:03:37;17.10;99.90
28839;DHT22;15971;50.772;6.100;2022-09-09T06:06:05;17.10;99.90
28839;DHT22;15971;50.772;6.100;2022-09-09T06:08:34;17.00;99.90
28839;DHT22;15971;50.772;6.100;2022-09-09T06:11:10;17.10;99.90
28839;DHT22;15971;50.772;6.100;2022-09-09T06:13:36;17.10;99.90
28839;DHT22;15971;50.772;6.100;2022-09-09T06:16:15;17.00;99.90
28839;DHT22;15971;50.772;6.100;2022-09-09T06:18:42;17.10;99.90
28839;DHT22;15971;50.772;6.100;2022-09-09T06:21:15;17.00;99.90
28839;DHT22;15971;50.772;6.100;2022-09-09T06:23:44;17.00;99.90
28839;DHT22;15971;50.772;6.100;2022-09-09T06:26:20;17.00;99.90
28839;DHT22;15971;50.772;6.100;2022-09-09T06:28:47;17.00;99.90
28839;DHT22;15971;50.772;6.100;2022-09-09T06:31:14;17.00;99.90
28839;DHT22;15971;50.772;6.100;2022-09-09T06:33:42;17.00;99.90
28839;DHT22;15971;50.772;6.100;2022-09-09T06:36:21;17.20;99.90
28839;DHT22;15971;50.772;6.100;2022-09-09T06:38:48;17.20;99.90
28839;DHT22;15971;50.772;6.100;2022-09-09T06:41:16;17.20;99.90
28839;DHT22;15971;50.772;6.100;2022-09-09T06:43:42;17.40;99.90
28839;DHT22;15971;50.772;6.100;2022-09-09T06:46:21;17.50;99.90
28839;DHT22;15971;50.772;6.100;2022-09-09T06:48:47;17.60;99.90
28839;DHT22;15971;50.772;6.100;2022-09-09T06:51:16;17.60;99.90
28839;DHT22;15971;50.772;6.100;2022-09-09T06:53:42;17.70;99.90
28839;DHT22;15971;50.772;6.100;2022-09-09T06:56:26;17.80;99.90
28839;DHT22;15971;50.772;6.100;2022-09-09T06:58:54;18.00;99.90
28839;DHT22;15971;50.772;6.100;2022-09-09T07:01:25;18.20;99.90
28839;DHT22;15971;50.772;6.100;2022-09-09T07:03:53;18.40;99.90
28839;DHT22;15971;50.772;6.100;2022-09-09T07:06:27;18.60;99.90
28839;DHT22;15971;50.772;6.100;2022-09-09T07:09:01;18.50;99.90
28839;DHT22;15971;50.772;6.100;2022-09-09T07:11:31;18.50;99.90
28839;DHT22;15971;50.772;6.100;2022-09-09T07:13:58;18.60;99.90
28839;DHT22;15971;50.772;6.100;2022-09-09T07:16:25;18.70;99.90
28839;DHT22;15971;50.772;6.100;2022-09-09T07:18:51;18.80;99.90
28839;DHT22;15971;50.772;6.100;2022-09-09T07:21:18;18.90;99.90
28839;DHT22;15971;50.772;6.100;2022-09-09T07:23:46;19.10;99.90
28839;DHT22;15971;50.772;6.100;2022-09-09T07:26:17;19.40;99.90
28839;DHT22;15971;50.772;6.100;2022-09-09T07:28:44;19.40;99.90
28839;DHT22;15971;50.772;6.100;2022-09-09T07:31:15;19.50;99.90
28839;DHT22;15971;50.772;6.100;2022-09-09T07:33:42;19.70;99.90
28839;DHT22;15971;50.772;6.100;2022-09-09T07:36:12;19.60;99.90
28839;DHT22;15971;50.772;6.100;2022-09-09T07:38:42;19.50;99.90
28839;DHT22;15971;50.772;6.100;2022-09-09T07:41:19;19.40;99.90
28839;DHT22;15971;50.772;6.100;2022-09-09T07:43:46;19.50;99.90
28839;DHT22;15971;50.772;6.100;2022-09-09T07:46:14;19.60;99.90
28839;DHT22;15971;50.772;6.100;2022-09-09T07:48:44;19.80;99.90
28839;DHT22;15971;50.772;6.100;2022-09-09T07:51:15;20.10;99.90
28839;DHT22;15971;50.772;6.100;2022-09-09T07:53:46;20.20;99.90
28839;DHT22;15971;50.772;6.100;2022-09-09T07:56:14;20.30;99.90
28839;DHT22;15971;50.772;6.100;2022-09-09T07:58:44;20.20;99.90
28839;DHT22;15971;50.772;6.100;2022-09-09T08:01:12;20.40;99.90
28839;DHT22;15971;50.772;6.100;2022-09-09T08:03:38;20.30;99.90
28839;DHT22;15971;50.772;6.100;2022-09-09T08:06:07;20.40;99.90
28839;DHT22;15971;50.772;6.100;2022-09-09T08:08:34;20.20;99.90
28839;DHT22;15971;50.772;6.100;2022-09-09T08:11:08;20.20;99.90
28839;DHT22;15971;50.772;6.100;2022-09-09T08:13:38;19.90;99.90
28839;DHT22;15971;50.772;6.100;2022-09-09T08:16:07;19.70;99.90
28839;DHT22;15971;50.772;6.100;2022-09-09T08:18:33;19.50;99.90
28839;DHT22;15971;50.772;6.100;2022-09-09T08:21:15;19.80;99.90
28839;DHT22;15971;50.772;6.100;2022-09-09T08:23:44;19.90;99.90
28839;DHT22;15971;50.772;6.100;2022-09-09T08:26:15;19.90;99.90
28839;DHT22;15971;50.772;6.100;2022-09-09T08:28:42;20.20;99.90
28839;DHT22;15971;50.772;6.100;2022-09-09T08:31:11;20.30;99.90
28839;DHT22;15971;50.772;6.100;2022-09-09T08:33:37;20.40;99.90
28839;DHT22;15971;50.772;6.100;2022-09-09T08:36:04;20.50;99.90
28839;DHT22;15971;50.772;6.100;2022-09-09T08:38:30;20.70;99.90
28839;DHT22;15971;50.772;6.100;2022-09-09T08:41:14;20.80;99.90
28839;DHT22;15971;50.772;6.100;2022-09-09T08:43:45;20.60;99.90
28839;DHT22;15971;50.772;6.100;2022-09-09T08:46:24;20.30;99.90
28839;DHT22;15971;50.772;6.100;2022-09-09T08:49:19;20.20;99.90
28839;DHT22;15971;50.772;6.100;2022-09-09T08:51:48;20.00;99.90
28839;DHT22;15971;50.772;6.100;2022-09-09T08:54:15;19.70;99.90
28839;DHT22;15971;50.772;6.100;2022-09-09T08:56:41;19.60;99.90
28839;DHT22;15971;50.772;6.100;2022-09-09T08:59:11;19.50;99.90
28839;DHT22;15971;50.772;6.100;2022-09-09T09:04:30;19.30;99.90
28839;DHT22;15971;50.772;6.100;2022-09-09T09:07:03;19.30;99.90
28839;DHT22;15971;50.772;6.100;2022-09-09T09:09:44;19.40;99.90
28839;DHT22;15971;50.772;6.100;2022-09-09T09:12:20;19.60;99.90
28839;DHT22;15971;50.772;6.100;2022-09-09T09:14:48;19.50;99.90
28839;DHT22;15971;50.772;6.100;2022-09-09T09:17:21;19.60;99.90
28839;DHT22;15971;50.772;6.100;2022-09-09T09:19:48;19.60;99.90
28839;DHT22;15971;50.772;6.100;2022-09-09T09:30:22;20.00;99.90
28839;DHT22;15971;50.772;6.100;2022-09-09T09:32:57;20.10;99.90
28839;DHT22;15971;50.772;6.100;2022-09-09T09:35:25;20.40;99.90
28839;DHT22;15971;50.772;6.100;2022-09-09T09:37:50;20.60;99.90
28839;DHT22;15971;50.772;6.100;2022-09-09T09:40:18;20.70;99.90
28839;DHT22;15971;50.772;6.100;2022-09-09T09:43:03;20.90;99.90
28839;DHT22;15971;50.772;6.100;2022-09-09T09:45:44;21.30;99.90
28839;DHT22;15971;50.772;6.100;2022-09-09T09:48:12;21.60;99.90
28839;DHT22;15971;50.772;6.100;2022-09-09T09:50:48;21.80;99.90
28839;DHT22;15971;50.772;6.100;2022-09-09T09:53:22;21.90;99.90
28839;DHT22;15971;50.772;6.100;2022-09-09T09:56:05;21.90;99.90
28839;DHT22;15971;50.772;6.100;2022-09-09T09:58:36;22.00;99.90
28839;DHT22;15971;50.772;6.100;2022-09-09T10:01:04;21.40;99.90
28839;DHT22;15971;50.772;6.100;2022-09-09T10:03:32;21.20;99.90
28839;DHT22;15971;50.772;6.100;2022-09-09T10:06:03;21.20;99.90
28839;DHT22;15971;50.772;6.100;2022-09-09T10:08:29;21.50;99.90
28839;DHT22;15971;50.772;6.100;2022-09-09T10:11:57;21.70;99.90
28839;DHT22;15971;50.772;6.100;2022-09-09T10:17:36;21.30;99.90
28839;DHT22;15971;50.772;6.100;2022-09-09T10:22:36;20.90;99.90
28839;DHT22;15971;50.772;6.100;2022-09-09T10:27:57;21.30;99.90
28839;DHT22;15971;50.772;6.100;2022-09-09T10:30:48;21.60;99.90
28839;DHT22;15971;50.772;6.100;2022-09-09T10:33:33;21.80;99.90
28839;DHT22;15971;50.772;6.100;2022-09-09T10:36:22;21.80;99.90
28839;DHT22;15971;50.772;6.100;2022-09-09T10:39:15;21.40;99.90
28839;DHT22;15971;50.772;6.100;2022-09-09T10:41:50;20.80;99.90
28839;DHT22;15971;50.772;6.100;2022-09-09T10:44:29;20.60;99.90
28839;DHT22;15971;50.772;6.100;2022-09-09T10:50:01;20.30;99.90
28839;DHT22;15971;50.772;6.100;2022-09-09T10:55:18;19.80;99.90
28839;DHT22;15971;50.772;6.100;2022-09-09T10:57:53;19.80;99.90
28839;DHT22;15971;50.772;6.100;2022-09-09T11:00:20;19.70;99.90
28839;DHT22;15971;50.772;6.100;2022-09-09T11:02:58;20.10;99.90
28839;DHT22;15971;50.772;6.100;2022-09-09T11:05:30;20.30;99.90
28839;DHT22;15971;50.772;6.100;2022-09-09T11:08:04;20.60;99.90
28839;DHT22;15971;50.772;6.100;2022-09-09T11:13:34;21.00;99.90
28839;DHT22;15971;50.772;6.100;2022-09-09T11:18:40;21.30;99.90
28839;DHT22;15971;50.772;6.100;2022-09-09T11:21:15;20.80;99.90
28839;DHT22;15971;50.772;6.100;2022-09-09T11:23:48;20.40;99.90
28839;DHT22;15971;50.772;6.100;2022-09-09T11:26:47;20.20;99.90
28839;DHT22;15971;50.772;6.100;2022-09-09T11:29:56;20.30;99.90
28839;DHT22;15971;50.772;6.100;2022-09-09T11:40:34;21.20;99.90
28839;DHT22;15971;50.772;6.100;2022-09-09T11:43:24;21.40;99.90
28839;DHT22;15971;50.772;6.100;2022-09-09T11:45:53;21.10;99.90
28839;DHT22;15971;50.772;6.100;2022-09-09T11:51:00;21.60;99.90
28839;DHT22;15971;50.772;6.100;2022-09-09T11:53:26;21.70;99.90
28839;DHT22;15971;50.772;6.100;2022-09-09T11:56:11;21.70;99.90
28839;DHT22;15971;50.772;6.100;2022-09-09T11:58:42;21.70;99.90
28839;DHT22;15971;50.772;6.100;2022-09-09T12:01:25;21.40;99.90
28839;DHT22;15971;50.772;6.100;2022-09-09T12:04:01;21.30;99.90
28839;DHT22;15971;50.772;6.100;2022-09-09T12:06:33;21.40;99.90
28839;DHT22;15971;50.772;6.100;2022-09-09T12:09:16;21.60;99.90
28839;DHT22;15971;50.772;6.100;2022-09-09T12:11:42;22.10;99.90
28839;DHT22;15971;50.772;6.100;2022-09-09T12:14:34;22.20;99.90
28839;DHT22;15971;50.772;6.100;2022-09-09T12:17:10;22.10;99.90
28839;DHT22;15971;50.772;6.100;2022-09-09T12:19:42;21.90;99.90
28839;DHT22;15971;50.772;6.100;2022-09-09T12:22:21;21.80;99.90
28839;DHT22;15971;50.772;6.100;2022-09-09T12:25:17;22.00;99.90
28839;DHT22;15971;50.772;6.100;2022-09-09T12:27:52;21.70;99.90
28839;DHT22;15971;50.772;6.100;2022-09-09T12:30:23;21.80;99.90
28839;DHT22;15971;50.772;6.100;2022-09-09T12:33:17;22.30;99.90
28839;DHT22;15971;50.772;6.100;2022-09-09T12:35:45;22.50;99.90
28839;DHT22;15971;50.772;6.100;2022-09-09T12:38:17;22.30;99.90
28839;DHT22;15971;50.772;6.100;2022-09-09T12:40:54;21.80;99.90
28839;DHT22;15971;50.772;6.100;2022-09-09T12:43:22;21.70;99.90
28839;DHT22;15971;50.772;6.100;2022-09-09T12:45:49;21.80;99.90
28839;DHT22;15971;50.772;6.100;2022-09-09T12:48:40;22.20;99.90
28839;DHT22;15971;50.772;6.100;2022-09-09T12:51:24;22.50;99.90
28839;DHT22;15971;50.772;6.100;2022-09-09T12:53:51;23.10;99.90
28839;DHT22;15971;50.772;6.100;2022-09-09T12:56:22;23.50;99.90
28839;DHT22;15971;50.772;6.100;2022-09-09T12:58:50;23.40;99.90
28839;DHT22;15971;50.772;6.100;2022-09-09T13:01:25;23.50;99.90
28839;DHT22;15971;50.772;6.100;2022-09-09T13:03:51;23.40;99.90
28839;DHT22;15971;50.772;6.100;2022-09-09T13:06:23;23.50;99.90
28839;DHT22;15971;50.772;6.100;2022-09-09T13:08:53;23.10;99.90
28839;DHT22;15971;50.772;6.100;2022-09-09T13:11:26;22.60;99.90
28839;DHT22;15971;50.772;6.100;2022-09-09T13:13:56;22.50;99.90
28839;DHT22;15971;50.772;6.100;2022-09-09T13:16:34;22.30;99.90
28839;DHT22;15971;50.772;6.100;2022-09-09T13:19:06;22.30;99.90
28839;DHT22;15971;50.772;6.100;2022-09-09T13:21:37;22.00;99.90
28839;DHT22;15971;50.772;6.100;2022-09-09T13:24:05;21.90;99.90
28839;DHT22;15971;50.772;6.100;2022-09-09T13:26:33;21.80;99.90
28839;DHT22;15971;50.772;6.100;2022-09-09T13:29:18;21.90;99.90
28839;DHT22;15971;50.772;6.100;2022-09-09T13:31:44;22.00;99.90
28839;DHT22;15971;50.772;6.100;2022-09-09T13:34:25;21.70;99.90
28839;DHT22;15971;50.772;6.100;2022-09-09T13:36:56;21.50;99.90
28839;DHT22;15971;50.772;6.100;2022-09-09T13:39:24;21.50;99.90
28839;DHT22;15971;50.772;6.100;2022-09-09T13:41:49;21.20;99.90
28839;DHT22;15971;50.772;6.100;2022-09-09T13:44:25;21.00;99.90
28839;DHT22;15971;50.772;6.100;2022-09-09T13:47:03;21.00;99.90
28839;DHT22;15971;50.772;6.100;2022-09-09T13:49:30;21.40;99.90
28839;DHT22;15971;50.772;6.100;2022-09-09T13:52:13;21.40;99.90
28839;DHT22;15971;50.772;6.100;2022-09-09T13:54:40;21.50;99.90
28839;DHT22;15971;50.772;6.100;2022-09-09T13:57:14;21.40;99.90
28839;DHT22;15971;50.772;6.100;2022-09-09T13:59:40;21.30;99.90
28839;DHT22;15971;50.772;6.100;2022-09-09T14:02:07;21.00;99.90
28839;DHT22;15971;50.772;6.100;2022-09-09T14:04:32;20.80;99.90
28839;DHT22;15971;50.772;6.100;2022-09-09T14:07:01;21.00;99.90
28839;DHT22;15971;50.772;6.100;2022-09-09T14:09:27;21.30;99.90
28839;DHT22;15971;50.772;6.100;2022-09-09T14:11:52;21.50;99.90
28839;DHT22;15971;50.772;6.100;2022-09-09T14:14:18;21.40;99.90
28839;DHT22;15971;50.772;6.100;2022-09-09T14:16:44;21.10;99.90
28839;DHT22;15971;50.772;6.100;2022-09-09T14:19:09;20.80;99.90
28839;DHT22;15971;50.772;6.100;2022-09-09T14:21:35;20.50;99.90
28839;DHT22;15971;50.772;6.100;2022-09-09T14:24:01;20.40;99.90
28839;DHT22;15971;50.772;6.100;2022-09-09T14:26:27;20.60;99.90
28839;DHT22;15971;50.772;6.100;2022-09-09T14:28:54;20.80;99.90
28839;DHT22;15971;50.772;6.100;2022-09-09T14:31:19;21.20;99.90
28839;DHT22;15971;50.772;6.100;2022-09-09T14:33:46;21.10;99.90
28839;DHT22;15971;50.772;6.100;2022-09-09T14:36:12;20.90;99.90
28839;DHT22;15971;50.772;6.100;2022-09-09T14:38:38;20.90;99.90
28839;DHT22;15971;50.772;6.100;2022-09-09T14:41:12;20.60;99.90
28839;DHT22;15971;50.772;6.100;2022-09-09T14:43:39;20.60;99.90
28839;DHT22;15971;50.772;6.100;2022-09-09T14:46:09;20.40;99.90
28839;DHT22;15971;50.772;6.100;2022-09-09T14:48:36;20.40;99.90
28839;DHT22;15971;50.772;6.100;2022-09-09T14:51:09;20.40;99.90
28839;DHT22;15971;50.772;6.100;2022-09-09T14:53:36;20.40;99.90
28839;DHT22;15971;50.772;6.100;2022-09-09T14:56:07;20.50;99.90
28839;DHT22;15971;50.772;6.100;2022-09-09T14:58:33;20.50;99.90
28839;DHT22;15971;50.772;6.100;2022-09-09T15:01:08;20.60;99.90
28839;DHT22;15971;50.772;6.100;2022-09-09T15:03:36;20.70;99.90
28839;DHT22;15971;50.772;6.100;2022-09-09T15:06:10;20.70;99.90
28839;DHT22;15971;50.772;6.100;2022-09-09T15:08:37;20.60;99.90
28839;DHT22;15971;50.772;6.100;2022-09-09T15:11:04;20.60;99.90
28839;DHT22;15971;50.772;6.100;2022-09-09T15:13:30;20.60;99.90
28839;DHT22;15971;50.772;6.100;2022-09-09T15:15:55;20.70;99.90
28839;DHT22;15971;50.772;6.100;2022-09-09T15:18:23;20.80;99.90
28839;DHT22;15971;50.772;6.100;2022-09-09T15:20:49;20.80;99.90
28839;DHT22;15971;50.772;6.100;2022-09-09T15:23:15;20.80;99.90
28839;DHT22;15971;50.772;6.100;2022-09-09T15:25:55;20.70;99.90
28839;DHT22;15971;50.772;6.100;2022-09-09T15:28:21;20.50;99.90
28839;DHT22;15971;50.772;6.100;2022-09-09T15:30:51;20.60;99.90
28839;DHT22;15971;50.772;6.100;2022-09-09T15:33:21;20.70;99.90
28839;DHT22;15971;50.772;6.100;2022-09-09T15:35:47;20.80;99.90
28839;DHT22;15971;50.772;6.100;2022-09-09T15:38:15;20.90;99.90
28839;DHT22;15971;50.772;6.100;2022-09-09T15:40:42;21.00;99.90
28839;DHT22;15971;50.772;6.100;2022-09-09T15:43:08;20.90;99.90
28839;DHT22;15971;50.772;6.100;2022-09-09T15:45:36;20.90;99.90
28839;DHT22;15971;50.772;6.100;2022-09-09T15:48:02;20.80;99.90
28839;DHT22;15971;50.772;6.100;2022-09-09T15:50:29;20.80;99.90
28839;DHT22;15971;50.772;6.100;2022-09-09T15:52:58;20.80;99.90
28839;DHT22;15971;50.772;6.100;2022-09-09T15:55:24;20.80;99.90
28839;DHT22;15971;50.772;6.100;2022-09-09T15:57:50;20.80;99.90
28839;DHT22;15971;50.772;6.100;2022-09-09T16:00:18;20.80;99.90
28839;DHT22;15971;50.772;6.100;2022-09-09T16:02:45;20.60;99.90
28839;DHT22;15971;50.772;6.100;2022-09-09T16:05:12;20.40;99.90
28839;DHT22;15971;50.772;6.100;2022-09-09T16:07:37;20.20;99.90
28839;DHT22;15971;50.772;6.100;2022-09-09T16:10:03;20.10;99.90
28839;DHT22;15971;50.772;6.100;2022-09-09T16:12:29;20.00;99.90
28839;DHT22;15971;50.772;6.100;2022-09-09T16:14:54;19.80;99.90
28839;DHT22;15971;50.772;6.100;2022-09-09T16:17:21;19.50;99.90
28839;DHT22;15971;50.772;6.100;2022-09-09T16:19:46;19.40;99.90
28839;DHT22;15971;50.772;6.100;2022-09-09T16:22:12;19.40;99.90
28839;DHT22;15971;50.772;6.100;2022-09-09T16:24:40;19.40;99.90
28839;DHT22;15971;50.772;6.100;2022-09-09T16:27:06;19.40;99.90
28839;DHT22;15971;50.772;6.100;2022-09-09T16:29:32;19.40;99.90
28839;DHT22;15971;50.772;6.100;2022-09-09T16:31:58;19.40;99.90
28839;DHT22;15971;50.772;6.100;2022-09-09T16:34:25;19.50;99.90
28839;DHT22;15971;50.772;6.100;2022-09-09T16:36:51;19.40;99.90
28839;DHT22;15971;50.772;6.100;2022-09-09T16:39:18;19.30;99.90
28839;DHT22;15971;50.772;6.100;2022-09-09T16:41:45;19.30;99.90
28839;DHT22;15971;50.772;6.100;2022-09-09T16:44:13;19.20;99.90
28839;DHT22;15971;50.772;6.100;2022-09-09T16:46:42;19.10;99.90
28839;DHT22;15971;50.772;6.100;2022-09-09T16:49:09;19.00;99.90
28839;DHT22;15971;50.772;6.100;2022-09-09T16:51:46;19.00;99.90
28839;DHT22;15971;50.772;6.100;2022-09-09T16:54:13;19.00;99.90
28839;DHT22;15971;50.772;6.100;2022-09-09T16:56:41;18.70;99.90
28839;DHT22;15971;50.772;6.100;2022-09-09T16:59:19;18.60;99.90
28839;DHT22;15971;50.772;6.100;2022-09-09T17:01:47;18.60;99.90
28839;DHT22;15971;50.772;6.100;2022-09-09T17:04:18;18.50;99.90
28839;DHT22;15971;50.772;6.100;2022-09-09T17:06:50;18.60;99.90
28839;DHT22;15971;50.772;6.100;2022-09-09T17:09:17;18.60;99.90
28839;DHT22;15971;50.772;6.100;2022-09-09T17:11:43;18.60;99.90
28839;DHT22;15971;50.772;6.100;2022-09-09T17:14:14;18.50;99.90
28839;DHT22;15971;50.772;6.100;2022-09-09T17:16:40;18.50;99.90